Time;durP1;ratioP1;P1;durP2;ratioP2;P2;SDS_P1;SDS_P2;PMS_P1;PMS_P2;Temp;Humidity;BMP_temperature;BMP_pressure;BME280_temperature;BME280_humidity;BME280_pressure;Samples;Min_cycle;Max_cycle;Signal;HPM_P1;HPM_P2
2021/03/22 00:00:27;;;;;;;15.93;10.17;;;4.20;52.40;;;;;;5007257;28;20220;-58
2021/03/22 00:02:54;;;;;;;14.83;10.23;;;4.20;52.00;;;;;;5009464;28;20207;-58
2021/03/22 00:05:22;;;;;;;14.20;10.67;;;4.20;51.70;;;;;;5012649;28;20211;-58
2021/03/22 00:07:51;;;;;;;13.97;9.77;;;4.20;51.90;;;;;;4991868;28;20211;-58
2021/03/22 00:10:19;;;;;;;15.53;11.13;;;4.20;52.10;;;;;;5011487;28;20771;-58
2021/03/22 00:12:50;;;;;;;13.43;10.33;;;4.10;51.90;;;;;;5012234;28;20538;-58
2021/03/22 00:15:29;;;;;;;12.80;10.27;;;4.10;52.10;;;;;;5010229;28;20207;-58
2021/03/22 00:17:56;;;;;;;15.03;10.93;;;4.10;52.50;;;;;;5006675;28;20513;-58
2021/03/22 00:20:24;;;;;;;14.37;10.50;;;4.00;53.10;;;;;;5007958;28;20255;-58
2021/03/22 00:22:51;;;;;;;14.03;10.50;;;3.90;53.60;;;;;;5003326;28;20689;-58
2021/03/22 00:25:18;;;;;;;15.03;11.17;;;3.90;53.80;;;;;;5009545;28;20218;-58
2021/03/22 00:27:46;;;;;;;15.63;10.53;;;3.80;54.00;;;;;;5001908;28;20204;-58
2021/03/22 00:30:21;;;;;;;16.80;11.13;;;3.70;54.30;;;;;;5011157;28;20877;-58
2021/03/22 00:32:49;;;;;;;16.67;10.70;;;3.70;54.50;;;;;;5011802;28;20350;-58
2021/03/22 00:35:17;;;;;;;17.40;10.80;;;3.60;54.60;;;;;;5000546;28;20215;-58
2021/03/22 00:37:44;;;;;;;17.23;10.47;;;3.60;54.90;;;;;;4998172;28;20649;-58
2021/03/22 00:40:13;;;;;;;14.07;10.87;;;3.50;55.20;;;;;;5008529;28;20258;-58
2021/03/22 00:42:41;;;;;;;15.20;10.77;;;3.50;55.60;;;;;;4986224;28;20212;-58
2021/03/22 00:45:10;;;;;;;16.97;11.67;;;3.40;56.00;;;;;;5015265;28;20208;-58
2021/03/22 00:47:38;;;;;;;14.80;10.83;;;3.30;56.40;;;;;;5003110;28;20211;-58
2021/03/22 00:50:08;;;;;;;17.37;10.80;;;3.20;56.50;;;;;;5007314;28;20664;-58
2021/03/22 00:52:35;;;;;;;20.60;10.17;;;3.20;57.40;;;;;;5014609;28;20250;-58
2021/03/22 00:55:02;;;;;;;12.13;10.27;;;3.10;56.50;;;;;;5010818;28;20236;-58
2021/03/22 00:57:29;;;;;;;13.87;10.60;;;3.00;56.40;;;;;;5015745;28;20270;-58
2021/03/22 00:59:57;;;;;;;13.30;10.53;;;3.00;56.30;;;;;;4998364;28;20237;-57
2021/03/22 01:02:24;;;;;;;15.17;10.67;;;3.00;56.20;;;;;;5008998;28;20238;-58
2021/03/22 01:04:51;;;;;;;14.67;10.17;;;3.00;56.30;;;;;;5008887;28;20240;-58
2021/03/22 01:07:18;;;;;;;14.10;10.30;;;3.00;56.40;;;;;;5015016;28;20207;-58
2021/03/22 01:09:45;;;;;;;17.90;10.40;;;2.90;56.50;;;;;;5009168;28;20290;-58
2021/03/22 01:12:12;;;;;;;14.23;10.70;;;2.90;56.50;;;;;;5012753;28;20716;-58
2021/03/22 01:14:39;;;;;;;17.63;12.07;;;2.90;56.50;;;;;;5009471;28;20262;-58
2021/03/22 01:17:07;;;;;;;15.67;12.07;;;2.90;56.50;;;;;;5014561;28;20241;-58
2021/03/22 01:19:33;;;;;;;17.27;11.57;;;2.90;56.70;;;;;;5011841;28;20231;-58
2021/03/22 01:22:02;;;;;;;16.47;11.87;;;2.80;56.70;;;;;;4997733;28;20676;-58
2021/03/22 01:24:32;;;;;;;16.73;12.03;;;2.90;57.40;;;;;;5014215;28;20228;-58
2021/03/22 01:27:03;;;;;;;16.43;11.93;;;2.80;56.80;;;;;;5005862;28;20219;-58
2021/03/22 01:29:39;;;;;;;16.37;12.37;;;2.80;57.00;;;;;;5008165;28;20215;-59
2021/03/22 01:32:12;;;;;;;16.00;13.10;;;2.80;57.20;;;;;;5013621;28;20238;-58
2021/03/22 01:34:40;;;;;;;14.20;11.00;;;2.80;57.50;;;;;;5013150;28;20216;-58
2021/03/22 01:37:17;;;;;;;;;;;;;;;;;;;;;
2021/03/22 01:39:44;;;;;;;15.03;11.50;;;2.70;58.00;;;;;;5014437;28;20239;-58
2021/03/22 01:42:17;;;;;;;13.90;11.50;;;2.70;58.10;;;;;;5005111;28;20218;-58
2021/03/22 01:45:06;;;;;;;16.10;12.53;;;2.70;58.20;;;;;;5009758;28;20295;-58
2021/03/22 01:47:35;;;;;;;18.00;11.73;;;2.60;58.50;;;;;;4993652;28;20215;-58
2021/03/22 01:50:15;;;;;;;17.60;11.20;;;2.60;58.80;;;;;;5013430;28;20231;-58
2021/03/22 01:52:45;;;;;;;15.77;11.97;;;2.50;59.00;;;;;;5024733;28;20207;-58
2021/03/22 01:55:15;;;;;;;15.53;10.93;;;2.40;58.90;;;;;;5014115;28;20287;-58
2021/03/22 01:57:44;;;;;;;15.70;11.50;;;2.40;58.70;;;;;;4986848;28;20246;-58
2021/03/22 02:00:33;;;;;;;16.83;12.83;;;2.40;58.60;;;;;;5012080;28;20290;-58
2021/03/22 02:03:06;;;;;;;16.73;11.57;;;2.40;58.30;;;;;;5004087;28;20204;-58
2021/03/22 02:05:35;;;;;;;18.43;11.43;;;2.40;58.10;;;;;;5012085;28;20208;-58
2021/03/22 02:08:19;;;;;;;20.47;12.17;;;2.40;58.10;;;;;;5004771;28;20208;-58
2021/03/22 02:10:47;;;;;;;19.13;12.60;;;2.40;58.20;;;;;;5008591;28;20236;-58
2021/03/22 02:13:17;;;;;;;17.47;11.23;;;2.40;58.40;;;;;;5006565;28;20203;-58
2021/03/22 02:15:45;;;;;;;16.50;12.17;;;2.30;58.70;;;;;;4997284;28;20644;-58
2021/03/22 02:18:29;;;;;;;20.03;11.97;;;2.20;58.90;;;;;;4998828;28;20239;-58
2021/03/22 02:20:56;;;;;;;16.83;11.67;;;2.20;59.10;;;;;;4996406;28;20299;-58
2021/03/22 02:23:33;;;;;;;18.23;13.00;;;2.20;59.20;;;;;;5012483;28;20677;-58
2021/03/22 02:26:19;;;;;;;12.77;10.53;;;2.10;59.30;;;;;;5011726;28;20637;-58
2021/03/22 02:29:07;;;;;;;18.77;11.73;;;2.10;59.40;;;;;;5003054;28;20203;-58
2021/03/22 02:32:06;;;;;;;17.10;11.70;;;2.10;59.70;;;;;;5008268;28;20308;-58
2021/03/22 02:34:50;;;;;;;16.87;12.23;;;2.00;59.80;;;;;;5007829;28;20285;-58
2021/03/22 02:37:23;;;;;;;14.17;11.07;;;1.90;59.70;;;;;;5001208;28;20220;-58
2021/03/22 02:39:59;;;;;;;17.13;12.10;;;1.90;59.90;;;;;;4990469;28;20239;-58
2021/03/22 02:42:29;;;;;;;18.80;12.33;;;1.80;60.00;;;;;;5016480;28;20226;-58
2021/03/22 02:44:55;;;;;;;17.27;12.37;;;1.80;60.50;;;;;;5000818;28;20557;-58
2021/03/22 02:47:31;;;;;;;15.97;11.93;;;1.80;60.60;;;;;;4996881;28;20647;-58
2021/03/22 02:50:01;;;;;;;19.07;12.33;;;1.80;60.90;;;;;;5001420;28;20607;-58
2021/03/22 02:53:00;;;;;;;19.70;11.63;;;1.80;61.20;;;;;;5002063;28;20295;-58
2021/03/22 02:56:05;;;;;;;17.90;12.10;;;1.70;61.40;;;;;;4997362;28;20212;-58
2021/03/22 02:58:44;;;;;;;17.73;12.30;;;1.70;61.20;;;;;;5003880;28;20237;-58
2021/03/22 03:01:36;;;;;;;17.03;11.93;;;1.60;61.20;;;;;;5006876;28;20215;-58
2021/03/22 03:04:06;;;;;;;16.80;11.90;;;1.60;61.30;;;;;;5013115;28;20369;-58
2021/03/22 03:06:55;;;;;;;19.10;12.90;;;1.50;61.40;;;;;;5012939;28;20215;-58
2021/03/22 03:09:27;;;;;;;16.53;11.63;;;1.50;61.70;;;;;;5004113;28;20215;-58
2021/03/22 03:11:55;;;;;;;14.33;11.67;;;1.50;61.50;;;;;;5012608;28;20208;-58
2021/03/22 03:14:23;;;;;;;22.27;13.13;;;1.40;61.60;;;;;;5011990;28;20285;-58
2021/03/22 03:16:50;;;;;;;17.73;12.27;;;1.40;61.80;;;;;;5012673;28;20230;-58
2021/03/22 03:19:17;;;;;;;16.27;12.03;;;1.40;62.10;;;;;;5012894;28;20238;-58
2021/03/22 03:21:45;;;;;;;16.40;12.07;;;1.40;62.10;;;;;;5011734;28;20290;-58
2021/03/22 03:24:12;;;;;;;17.73;12.37;;;1.40;62.20;;;;;;5010631;28;20254;-58
2021/03/22 03:26:39;;;;;;;19.00;12.30;;;1.40;62.30;;;;;;5012822;28;20589;-58
2021/03/22 03:29:14;;;;;;;17.43;11.63;;;1.40;62.50;;;;;;5009384;28;20207;-58
2021/03/22 03:31:41;;;;;;;17.83;11.97;;;1.40;62.70;;;;;;5002853;28;20761;-58
2021/03/22 03:34:08;;;;;;;19.67;11.73;;;1.30;62.80;;;;;;5009275;28;20684;-58
2021/03/22 03:36:35;;;;;;;14.23;10.93;;;1.30;62.80;;;;;;5003252;28;20255;-58
2021/03/22 03:39:05;;;;;;;18.03;11.87;;;1.30;63.00;;;;;;4993818;28;20716;-58
2021/03/22 03:41:34;;;;;;;16.87;12.70;;;1.30;63.30;;;;;;4996299;28;20247;-58
2021/03/22 03:44:03;;;;;;;14.90;12.07;;;1.30;63.30;;;;;;5006798;28;20241;-58
2021/03/22 03:46:29;;;;;;;18.33;13.07;;;1.20;63.50;;;;;;5005509;28;20287;-58
2021/03/22 03:48:56;;;;;;;13.30;10.93;;;1.20;63.40;;;;;;5008963;28;20281;-58
2021/03/22 03:51:23;;;;;;;21.93;11.97;;;1.20;63.30;;;;;;5011230;28;20299;-58
2021/03/22 03:53:50;;;;;;;17.47;11.67;;;1.20;63.50;;;;;;5007735;28;20633;-58
2021/03/22 03:56:17;;;;;;;20.43;12.43;;;1.20;63.60;;;;;;5006102;28;20240;-58
2021/03/22 03:58:44;;;;;;;17.80;11.57;;;1.10;63.60;;;;;;4997403;28;20290;-58
2021/03/22 04:01:11;;;;;;;19.20;12.83;;;1.10;63.90;;;;;;5000572;28;20258;-58
2021/03/22 04:03:40;;;;;;;18.20;12.47;;;1.10;63.90;;;;;;5011375;28;20544;-58
2021/03/22 04:06:14;;;;;;;17.43;12.33;;;1.10;64.00;;;;;;4995583;28;20216;-58
2021/03/22 04:08:53;;;;;;;17.13;13.17;;;1.10;64.20;;;;;;5011810;28;20225;-58
2021/03/22 04:11:29;;;;;;;16.93;12.23;;;1.10;64.30;;;;;;5006044;28;20227;-58
2021/03/22 04:13:57;;;;;;;17.23;12.80;;;1.10;64.40;;;;;;5010808;28;20661;-58
2021/03/22 04:16:27;;;;;;;17.33;13.03;;;1.00;64.40;;;;;;4996411;28;20297;-57
2021/03/22 04:18:54;;;;;;;16.50;12.63;;;1.00;64.50;;;;;;5012306;28;20239;-58
2021/03/22 04:21:24;;;;;;;16.57;12.03;;;1.00;64.60;;;;;;5008222;28;20215;-58
2021/03/22 04:23:52;;;;;;;17.30;11.60;;;1.00;64.50;;;;;;5007592;28;20238;-57
2021/03/22 04:26:20;;;;;;;18.50;13.13;;;1.00;64.40;;;;;;5000905;28;20608;-57
2021/03/22 04:28:47;;;;;;;18.23;12.77;;;0.90;64.40;;;;;;5006651;28;20214;-58
2021/03/22 04:31:20;;;;;;;18.10;12.60;;;0.90;64.50;;;;;;5006484;28;20220;-58
2021/03/22 04:33:50;;;;;;;16.97;11.57;;;0.90;64.70;;;;;;5011278;28;20216;-57
2021/03/22 04:36:20;;;;;;;15.30;12.90;;;0.90;64.70;;;;;;4994855;28;20298;-57
2021/03/22 04:38:50;;;;;;;19.77;12.23;;;0.90;64.70;;;;;;5006778;28;20259;-57
2021/03/22 04:41:18;;;;;;;21.63;12.83;;;0.90;64.70;;;;;;5004866;28;20211;-57
2021/03/22 04:43:45;;;;;;;16.53;11.73;;;0.90;64.70;;;;;;5001827;28;20226;-58
2021/03/22 04:46:12;;;;;;;17.47;12.07;;;0.90;64.70;;;;;;4993687;28;20323;-58
2021/03/22 04:48:57;;;;;;;21.63;11.53;;;0.80;64.70;;;;;;5010472;28;20223;-58
2021/03/22 04:51:25;;;;;;;19.13;10.93;;;0.80;64.80;;;;;;5012570;28;20204;-58
2021/03/22 04:53:52;;;;;;;19.23;11.30;;;0.80;64.90;;;;;;4997514;28;20216;-58
2021/03/22 04:56:21;;;;;;;20.07;11.77;;;0.70;65.00;;;;;;5010813;28;20658;-58
2021/03/22 04:58:48;;;;;;;20.33;10.70;;;0.70;65.00;;;;;;5011755;28;20703;-58
2021/03/22 05:01:15;;;;;;;16.77;10.60;;;0.70;65.00;;;;;;5011196;28;20693;-58
2021/03/22 05:03:43;;;;;;;18.10;10.33;;;0.70;65.00;;;;;;5004227;28;20208;-58
2021/03/22 05:06:11;;;;;;;24.47;10.67;;;0.60;65.00;;;;;;5004290;28;20302;-58
2021/03/22 05:08:37;;;;;;;13.97;9.83;;;0.70;65.10;;;;;;5008383;28;20211;-57
2021/03/22 05:11:05;;;;;;;16.37;9.93;;;0.70;65.10;;;;;;5010581;28;20222;-57
2021/03/22 05:13:32;;;;;;;16.37;10.60;;;0.70;64.90;;;;;;5010448;28;20208;-57
2021/03/22 05:15:59;;;;;;;17.83;10.57;;;0.70;64.90;;;;;;5013053;28;20274;-58
2021/03/22 05:18:33;;;;;;;13.57;9.60;;;0.70;64.80;;;;;;5010664;28;20214;-57
2021/03/22 05:21:03;;;;;;;12.33;9.10;;;0.80;64.90;;;;;;5012422;28;20208;-58
2021/03/22 05:23:32;;;;;;;16.67;9.37;;;0.80;64.90;;;;;;5009960;28;20236;-58
2021/03/22 05:25:59;;;;;;;14.67;10.30;;;0.80;64.90;;;;;;5007213;28;20208;-58
2021/03/22 05:28:29;;;;;;;10.83;9.20;;;0.90;64.80;;;;;;4988917;28;20208;-58
2021/03/22 05:30:56;;;;;;;13.40;9.83;;;1.00;64.90;;;;;;5004319;28;20238;-58
2021/03/22 05:33:24;;;;;;;15.53;9.93;;;1.10;64.80;;;;;;5011128;28;20687;-58
2021/03/22 05:35:55;;;;;;;13.33;9.77;;;1.20;64.70;;;;;;5011196;28;20220;-58
2021/03/22 05:38:23;;;;;;;15.87;10.63;;;1.40;64.50;;;;;;5003599;28;20212;-58
2021/03/22 05:41:16;;;;;;;18.93;9.93;;;1.50;64.90;;;;;;4999070;28;20238;-58
2021/03/22 05:43:50;;;;;;;13.50;8.83;;;1.80;63.80;;;;;;5007667;28;20211;-58
2021/03/22 05:46:32;;;;;;;11.17;8.63;;;2.00;63.30;;;;;;5014409;28;20235;-58
2021/03/22 05:48:59;;;;;;;17.43;9.73;;;2.20;62.70;;;;;;5008802;28;20204;-58
2021/03/22 05:51:34;;;;;;;16.97;9.63;;;2.40;62.20;;;;;;5014049;28;20258;-58
2021/03/22 05:54:19;;;;;;;14.30;8.83;;;2.60;61.90;;;;;;5011364;28;20306;-58
2021/03/22 05:56:57;;;;;;;16.30;9.30;;;2.70;61.50;;;;;;5006707;28;20311;-58
2021/03/22 06:00:02;;;;;;;10.93;8.33;;;3.00;61.30;;;;;;5006921;28;20304;-58
2021/03/22 06:02:40;;;;;;;15.77;8.57;;;3.20;60.80;;;;;;4965864;28;20536;-58
2021/03/22 06:05:29;;;;;;;9.53;7.17;;;3.40;60.10;;;;;;5009964;28;20221;-58
2021/03/22 06:08:10;;;;;;;10.63;7.87;;;3.60;59.40;;;;;;4999708;28;20228;-58
2021/03/22 06:10:48;;;;;;;11.53;7.47;;;3.90;59.00;;;;;;5007446;28;20275;-58
2021/03/22 06:13:16;;;;;;;8.40;7.30;;;4.10;58.60;;;;;;5011445;28;20588;-58
2021/03/22 06:15:53;;;;;;;12.20;8.00;;;4.40;58.30;;;;;;5014109;28;20243;-59
2021/03/22 06:18:29;;;;;;;11.53;8.10;;;4.60;57.70;;;;;;5007341;28;20227;-58
2021/03/22 06:21:00;;;;;;;9.60;7.03;;;4.80;57.30;;;;;;4989304;28;20235;-58
2021/03/22 06:23:44;;;;;;;11.03;7.83;;;4.90;56.60;;;;;;5006078;28;20244;-58
2021/03/22 06:26:42;;;;;;;11.03;7.63;;;5.10;56.50;;;;;;5010408;28;20222;-58
2021/03/22 06:29:24;;;;;;;11.60;7.57;;;5.30;55.80;;;;;;5009016;28;20303;-58
2021/03/22 06:32:19;;;;;;;9.83;7.40;;;5.40;55.10;;;;;;5001949;28;20294;-58
2021/03/22 06:34:59;;;;;;;9.23;6.87;;;5.50;54.60;;;;;;5007225;28;20222;-58
2021/03/22 06:37:33;;;;;;;13.93;7.20;;;5.70;54.50;;;;;;5007784;28;20278;-57
2021/03/22 06:40:25;;;;;;;10.93;8.07;;;5.90;54.20;;;;;;5002396;28;20259;-58
2021/03/22 06:43:12;;;;;;;13.07;7.93;;;6.10;53.70;;;;;;5009639;28;20200;-58
2021/03/22 06:45:45;;;;;;;9.47;7.47;;;6.30;53.30;;;;;;5007884;28;20664;-58
2021/03/22 06:48:28;;;;;;;21.07;9.10;;;6.40;52.70;;;;;;5009749;28;20211;-58
2021/03/22 06:51:04;;;;;;;11.37;8.10;;;6.50;52.40;;;;;;5011197;28;20308;-58
2021/03/22 06:53:41;;;;;;;11.23;7.67;;;6.80;51.90;;;;;;5012829;28;20591;-58
2021/03/22 06:56:12;;;;;;;11.27;7.67;;;6.90;51.20;;;;;;5011406;28;21581;-58
2021/03/22 06:58:39;;;;;;;8.87;7.00;;;7.00;50.60;;;;;;4995123;28;20444;-58
2021/03/22 07:01:21;;;;;;;9.47;5.77;;;7.10;50.10;;;;;;5008940;28;20280;-58
2021/03/22 07:03:50;;;;;;;10.37;7.27;;;7.20;49.80;;;;;;5013708;28;20595;-58
2021/03/22 07:06:23;;;;;;;11.90;6.83;;;7.30;49.30;;;;;;5007921;28;20209;-58
2021/03/22 07:08:51;;;;;;;13.07;7.40;;;7.20;49.00;;;;;;4995912;28;20258;-58
2021/03/22 07:11:24;;;;;;;9.57;7.07;;;7.20;49.00;;;;;;5007619;28;20230;-58
2021/03/22 07:13:59;;;;;;;9.23;6.83;;;7.30;48.90;;;;;;5013046;28;20204;-58
2021/03/22 07:16:32;;;;;;;6.97;6.17;;;7.40;48.50;;;;;;5009150;28;20281;-58
2021/03/22 07:19:10;;;;;;;8.90;6.53;;;7.60;48.60;;;;;;4995370;28;20310;-58
2021/03/22 07:21:58;;;;;;;7.53;6.73;;;7.70;48.30;;;;;;5009906;28;20211;-58
2021/03/22 07:24:50;;;;;;;10.23;6.93;;;7.90;48.30;;;;;;4991463;28;20584;-58
2021/03/22 07:27:31;;;;;;;8.93;7.17;;;8.00;47.80;;;;;;4966390;28;20224;-58
2021/03/22 07:30:36;;;;;;;11.43;7.13;;;8.10;47.20;;;;;;4972796;28;20228;-58
2021/03/22 07:33:12;;;;;;;10.50;7.40;;;8.30;46.80;;;;;;4958611;28;20221;-58
2021/03/22 07:36:01;;;;;;;10.23;7.57;;;8.30;46.50;;;;;;4979576;28;20315;-58
2021/03/22 07:38:46;;;;;;;14.80;7.20;;;8.40;46.40;;;;;;4982728;28;21620;-58
2021/03/22 07:41:52;;;;;;;10.40;6.07;;;8.50;46.60;;;;;;4978350;28;20218;-58
2021/03/22 07:44:51;;;;;;;8.17;6.57;;;8.80;45.90;;;;;;4963143;28;20208;-58
2021/03/22 07:47:50;;;;;;;8.73;6.50;;;9.00;45.70;;;;;;4966687;28;20224;-58
2021/03/22 07:50:29;;;;;;;11.47;6.73;;;9.20;45.10;;;;;;4951341;28;20224;-58
2021/03/22 07:53:04;;;;;;;8.53;6.03;;;9.50;44.50;;;;;;4974559;28;20223;-58
2021/03/22 07:56:11;;;;;;;7.60;5.93;;;9.70;44.20;;;;;;4971396;28;20514;-58
2021/03/22 07:58:50;;;;;;;6.77;6.10;;;9.80;44.30;;;;;;4959242;28;20215;-58
2021/03/22 08:01:26;;;;;;;9.07;6.33;;;10.10;43.80;;;;;;4975367;28;20608;-58
2021/03/22 08:04:35;;;;;;;8.67;6.20;;;10.30;43.40;;;;;;4959849;28;20209;-58
2021/03/22 08:10:34;;;;;;;9.07;6.43;;;10.60;43.20;;;;;;5229584;23;20572;-57
2021/03/22 08:13:22;;;;;;;11.63;6.83;;;10.80;42.90;;;;;;5044243;28;20207;-57
2021/03/22 08:16:14;;;;;;;7.37;5.90;;;11.00;42.70;;;;;;5067942;28;20219;-59
2021/03/22 08:19:10;;;;;;;8.80;6.87;;;11.20;42.70;;;;;;5047363;28;20209;-58
2021/03/22 08:21:44;;;;;;;8.27;5.93;;;11.30;41.80;;;;;;5038620;28;20635;-58
2021/03/22 08:24:51;;;;;;;9.17;5.67;;;11.50;41.50;;;;;;5038826;28;20244;-56
2021/03/22 08:27:21;;;;;;;9.70;6.93;;;11.70;41.50;;;;;;5039504;28;20603;-61
2021/03/22 08:30:14;;;;;;;8.77;6.00;;;12.00;41.20;;;;;;5046263;28;20820;-57
2021/03/22 08:32:43;;;;;;;9.20;5.97;;;12.20;40.70;;;;;;5037005;28;20233;-59
2021/03/22 08:35:14;;;;;;;10.00;5.60;;;12.40;40.60;;;;;;5068556;28;20300;-57
2021/03/22 08:38:03;;;;;;;8.40;5.90;;;12.60;40.20;;;;;;5045995;28;20222;-61
2021/03/22 08:40:43;;;;;;;5.63;4.97;;;12.80;39.50;;;;;;5044119;28;20225;-59
2021/03/22 08:43:32;;;;;;;6.20;5.27;;;12.90;39.50;;;;;;5069322;28;20598;-59
2021/03/22 08:47:01;;;;;;;7.63;5.33;;;13.00;38.70;;;;;;5065505;28;20206;-57
2021/03/22 08:49:43;;;;;;;6.53;4.67;;;13.20;38.60;;;;;;4967234;28;20217;-60
2021/03/22 08:52:23;;;;;;;6.70;5.87;;;13.40;37.80;;;;;;4955156;28;20213;-57
2021/03/22 08:55:20;;;;;;;6.60;5.10;;;13.60;37.50;;;;;;5041831;28;20245;-57
2021/03/22 08:58:05;;;;;;;5.60;5.10;;;13.70;37.60;;;;;;5055097;28;20232;-59
2021/03/22 09:00:42;;;;;;;6.47;4.70;;;13.80;36.00;;;;;;5052517;28;20897;-57
2021/03/22 09:03:13;;;;;;;8.00;4.50;;;13.90;36.90;;;;;;5055382;28;20292;-56
2021/03/22 09:06:04;;;;;;;7.27;4.90;;;14.10;36.00;;;;;;5069551;28;20206;-60
2021/03/22 09:08:33;;;;;;;5.13;4.30;;;14.20;35.10;;;;;;5056645;28;20321;-58
2021/03/22 09:11:33;;;;;;;4.97;4.20;;;14.20;35.00;;;;;;5050186;28;20224;-56
2021/03/22 09:14:26;;;;;;;3.83;3.43;;;14.30;34.80;;;;;;5055431;28;20212;-57
2021/03/22 09:16:54;;;;;;;4.87;4.03;;;14.40;32.70;;;;;;5053867;28;20272;-58
2021/03/22 09:19:21;;;;;;;6.53;4.10;;;14.30;33.60;;;;;;5049471;28;20295;-60
2021/03/22 09:21:52;;;;;;;7.70;4.20;;;14.40;34.60;;;;;;5073968;28;20553;-59
2021/03/22 09:24:41;;;;;;;12.53;4.73;;;14.60;34.70;;;;;;5067503;28;20317;-59
2021/03/22 09:27:14;;;;;;;6.93;4.63;;;14.80;34.30;;;;;;5053110;28;20217;-59
2021/03/22 09:29:41;;;;;;;4.93;4.43;;;14.90;31.50;;;;;;5075771;28;20233;-60
2021/03/22 09:32:30;;;;;;;5.93;4.30;;;14.60;32.60;;;;;;5067168;28;20225;-60
2021/03/22 09:35:16;;;;;;;7.33;4.70;;;14.60;33.70;;;;;;5051681;28;20225;-60
2021/03/22 09:38:03;;;;;;;10.90;4.50;;;14.80;33.60;;;;;;5051054;28;20209;-60
2021/03/22 09:40:30;;;;;;;7.30;4.60;;;15.00;33.00;;;;;;5059652;28;20240;-60
2021/03/22 09:43:08;;;;;;;6.93;4.60;;;15.20;31.30;;;;;;5063265;28;20214;-59
2021/03/22 09:45:50;;;;;;;5.37;4.73;;;15.10;31.70;;;;;;5049936;28;20214;-60
2021/03/22 09:48:17;;;;;;;6.33;4.83;;;15.30;32.30;;;;;;5063525;28;20216;-60
2021/03/22 09:50:46;;;;;;;8.10;4.17;;;15.40;32.30;;;;;;5056683;28;20274;-60
2021/03/22 09:53:19;;;;;;;6.17;4.53;;;15.50;32.00;;;;;;5048801;28;20411;-59
2021/03/22 09:55:49;;;;;;;7.47;4.67;;;15.60;31.80;;;;;;5073828;28;20251;-59
2021/03/22 09:58:37;;;;;;;6.70;4.93;;;15.70;31.60;;;;;;5057759;28;20644;-59
2021/03/22 10:01:25;;;;;;;7.10;5.13;;;15.80;31.50;;;;;;5056282;28;20225;-60
2021/03/22 10:04:17;;;;;;;5.70;4.97;;;16.00;31.90;;;;;;5054275;28;20206;-57
2021/03/22 10:06:59;;;;;;;5.30;4.80;;;16.10;31.20;;;;;;5050065;28;20210;-57
2021/03/22 10:09:50;;;;;;;5.87;4.47;;;16.20;32.10;;;;;;5050101;28;20230;-60
2021/03/22 10:12:49;;;;;;;5.77;5.10;;;16.40;31.30;;;;;;5036773;28;20215;-61
2021/03/22 10:15:29;;;;;;;5.00;4.47;;;16.40;32.00;;;;;;5050573;28;20660;-59
2021/03/22 10:17:59;;;;;;;6.90;4.00;;;16.60;31.90;;;;;;5044926;28;20214;-60
2021/03/22 10:20:39;;;;;;;5.13;3.87;;;16.70;31.90;;;;;;5052496;28;20242;-59
2021/03/22 10:23:39;;;;;;;5.13;4.33;;;16.70;31.40;;;;;;5044398;28;20250;-59
2021/03/22 10:26:08;;;;;;;4.57;4.17;;;16.90;30.50;;;;;;5006741;28;20211;-58
2021/03/22 10:28:40;;;;;;;5.27;3.93;;;16.80;31.20;;;;;;5046510;28;20306;-58
2021/03/22 10:31:24;;;;;;;6.20;3.53;;;16.80;30.30;;;;;;5050485;28;20245;-60
2021/03/22 10:34:00;;;;;;;4.87;4.40;;;16.70;30.00;;;;;;5052997;28;20258;-59
2021/03/22 10:36:34;;;;;;;7.90;3.87;;;16.80;30.40;;;;;;5068431;28;20303;-59
2021/03/22 10:39:06;;;;;;;5.83;4.17;;;16.90;30.70;;;;;;5053732;28;20238;-59
2021/03/22 10:41:40;;;;;;;4.93;3.90;;;17.00;30.70;;;;;;5054827;28;20245;-59
2021/03/22 10:44:21;;;;;;;3.83;3.43;;;17.20;30.00;;;;;;5049082;28;20297;-59
2021/03/22 10:47:01;;;;;;;4.00;3.60;;;17.10;28.90;;;;;;5052549;28;20216;-60
2021/03/22 10:49:28;;;;;;;3.50;2.80;;;17.00;30.10;;;;;;5039862;28;20643;-59
2021/03/22 10:51:57;;;;;;;5.60;3.63;;;17.10;29.90;;;;;;5044406;28;20202;-59
2021/03/22 10:54:43;;;;;;;3.83;3.03;;;17.20;29.40;;;;;;5041423;28;20654;-61
2021/03/22 10:57:40;;;;;;;5.17;3.90;;;17.20;28.30;;;;;;5039944;28;20207;-62
2021/03/22 11:00:36;;;;;;;4.27;3.10;;;17.10;28.70;;;;;;5043327;28;20238;-60
2021/03/22 11:03:09;;;;;;;3.70;3.23;;;17.10;29.50;;;;;;5046766;28;20248;-60
2021/03/22 11:05:42;;;;;;;5.77;3.73;;;17.30;29.40;;;;;;5043713;28;20835;-58
2021/03/22 11:08:33;;;;;;;4.90;3.60;;;17.50;29.20;;;;;;5054044;28;20690;-59
2021/03/22 11:11:14;;;;;;;4.57;3.60;;;17.60;29.70;;;;;;5050320;28;20221;-61
2021/03/22 11:13:44;;;;;;;3.80;3.17;;;17.60;28.50;;;;;;5041112;28;20682;-58
2021/03/22 11:16:35;;;;;;;4.93;3.33;;;17.60;29.30;;;;;;5069529;28;20209;-59
2021/03/22 11:19:38;;;;;;;3.47;2.97;;;17.60;27.90;;;;;;5045039;28;20279;-60
2021/03/22 11:22:27;;;;;;;3.50;3.20;;;17.40;27.50;;;;;;5065556;28;20236;-57
2021/03/22 11:24:55;;;;;;;4.30;3.37;;;17.30;28.10;;;;;;5067436;28;20236;-59
2021/03/22 11:27:25;;;;;;;4.13;3.73;;;17.20;28.00;;;;;;5050299;28;20206;-59
2021/03/22 11:29:57;;;;;;;3.83;3.53;;;17.00;27.90;;;;;;5048907;28;20233;-59
2021/03/22 11:32:29;;;;;;;4.63;3.20;;;16.80;28.40;;;;;;5060260;28;20206;-59
2021/03/22 11:34:56;;;;;;;3.90;3.60;;;16.60;28.60;;;;;;5069492;28;20864;-58
2021/03/22 11:37:32;;;;;;;4.00;3.60;;;16.60;29.10;;;;;;5045365;28;20217;-57
2021/03/22 11:40:17;;;;;;;4.50;3.37;;;16.70;28.90;;;;;;5047059;28;20244;-59
2021/03/22 11:43:35;;;;;;;3.40;2.83;;;16.70;29.10;;;;;;5068449;28;20259;-58
2021/03/22 11:46:24;;;;;;;3.30;3.00;;;16.90;28.60;;;;;;5061607;28;20252;-58
2021/03/22 11:48:51;;;;;;;4.60;3.60;;;17.20;29.40;;;;;;5070596;28;20276;-59
2021/03/22 11:51:18;;;;;;;4.23;3.13;;;17.40;28.10;;;;;;5070064;28;20669;-61
2021/03/22 11:54:08;;;;;;;3.60;3.30;;;17.30;28.80;;;;;;5050246;28;20207;-60
2021/03/22 11:56:37;;;;;;;4.23;3.70;;;17.20;28.90;;;;;;5058347;28;20214;-60
2021/03/22 11:59:23;;;;;;;3.77;3.30;;;17.30;29.30;;;;;;5053913;28;20214;-62
2021/03/22 12:02:22;;;;;;;3.67;3.17;;;17.50;29.00;;;;;;5068590;28;20197;-59
2021/03/22 12:04:56;;;;;;;3.47;3.17;;;17.70;28.80;;;;;;5063922;28;20568;-59
2021/03/22 12:07:34;;;;;;;6.73;3.20;;;17.80;28.30;;;;;;5037282;28;20206;-59
2021/03/22 12:10:01;;;;;;;3.90;3.50;;;17.80;28.70;;;;;;5067992;28;20237;-59
2021/03/22 12:12:28;;;;;;;6.93;3.03;;;17.90;28.50;;;;;;5048839;28;20246;-59
2021/03/22 12:14:55;;;;;;;4.73;3.63;;;18.00;28.30;;;;;;5046233;28;20210;-59
2021/03/22 12:17:29;;;;;;;3.33;2.97;;;18.00;28.40;;;;;;5068304;28;20211;-59
2021/03/22 12:19:56;;;;;;;5.67;3.43;;;17.90;28.10;;;;;;5045194;28;20573;-59
2021/03/22 12:22:24;;;;;;;3.87;3.10;;;17.90;28.00;;;;;;5059501;28;20270;-59
2021/03/22 12:24:52;;;;;;;3.20;2.90;;;17.80;28.10;;;;;;5061948;28;20202;-59
2021/03/22 12:27:21;;;;;;;3.17;2.90;;;17.80;28.00;;;;;;5070514;28;20218;-59
2021/03/22 12:29:48;;;;;;;4.73;3.50;;;17.70;28.10;;;;;;5067752;28;20210;-59
2021/03/22 12:32:23;;;;;;;4.53;2.97;;;17.50;27.80;;;;;;5073790;28;20281;-59
2021/03/22 12:34:52;;;;;;;3.80;2.90;;;17.40;27.80;;;;;;5075751;28;20618;-59
2021/03/22 12:37:32;;;;;;;3.13;2.83;;;17.20;27.60;;;;;;5047127;28;20928;-59
2021/03/22 12:40:01;;;;;;;4.20;3.40;;;17.10;29.00;;;;;;5071737;28;20298;-59
2021/03/22 12:42:29;;;;;;;3.60;3.17;;;17.10;28.10;;;;;;5072156;28;20207;-59
2021/03/22 12:44:56;;;;;;;3.90;3.57;;;17.00;27.60;;;;;;5056659;28;20217;-59
2021/03/22 12:47:27;;;;;;;3.57;3.27;;;16.90;28.60;;;;;;5054852;28;20206;-59
2021/03/22 12:49:55;;;;;;;7.57;3.50;;;17.00;29.10;;;;;;5060980;28;20220;-59
2021/03/22 12:52:22;;;;;;;3.93;3.53;;;17.10;29.50;;;;;;5071354;28;20575;-59
2021/03/22 12:54:55;;;;;;;3.40;3.10;;;17.30;28.80;;;;;;5072094;28;20212;-59
2021/03/22 12:57:26;;;;;;;4.07;3.67;;;17.40;28.90;;;;;;5075051;28;20239;-59
2021/03/22 12:59:56;;;;;;;4.20;3.53;;;17.50;28.80;;;;;;5070483;28;20236;-57
2021/03/22 13:02:27;;;;;;;3.70;3.40;;;17.50;28.60;;;;;;5052585;28;20616;-59
2021/03/22 13:04:55;;;;;;;7.17;3.20;;;17.50;28.50;;;;;;5060579;28;20203;-57
2021/03/22 13:07:22;;;;;;;3.97;3.13;;;17.50;28.70;;;;;;5046272;28;20205;-57
2021/03/22 13:09:49;;;;;;;3.47;3.17;;;17.50;28.10;;;;;;5047692;28;20242;-59
2021/03/22 13:12:28;;;;;;;3.37;3.07;;;17.40;28.30;;;;;;5045766;28;20222;-57
2021/03/22 13:14:56;;;;;;;3.67;3.37;;;17.30;28.20;;;;;;5048223;28;20214;-60
2021/03/22 13:17:31;;;;;;;4.30;3.50;;;17.20;29.00;;;;;;5051341;28;20211;-58
2021/03/22 13:20:01;;;;;;;7.30;3.40;;;17.10;28.80;;;;;;5051959;28;20230;-59
2021/03/22 13:22:29;;;;;;;3.63;3.33;;;17.10;28.60;;;;;;5051090;28;20307;-57
2021/03/22 13:25:01;;;;;;;3.37;2.90;;;17.20;28.30;;;;;;5051721;28;20216;-57
2021/03/22 13:27:28;;;;;;;6.43;2.93;;;17.20;28.10;;;;;;5042781;28;20635;-58
2021/03/22 13:29:55;;;;;;;4.67;3.50;;;17.10;28.10;;;;;;5050074;28;20639;-58
2021/03/22 13:32:22;;;;;;;5.33;3.67;;;17.10;28.20;;;;;;5045418;28;20229;-58